TimeEDT,TemperatureF,Dew PointF,Humidity,Sea Level PressureIn,VisibilityMPH,Wind Direction,Wind SpeedMPH,Gust SpeedMPH,PrecipitationIn,Events,Conditions,WindDirDegrees,DateUTC
12:53 AM,72.0,69.1,91,30.06,5.0,Calm,Calm,-,N/A,,Clear,0,2013-09-11 04:53:00
1:46 AM,69.8,68.0,94,30.08,1.5,Calm,Calm,-,N/A,,Clear,0,2013-09-11 05:46:00
1:53 AM,70.0,68.0,93,30.06,0.8,Calm,Calm,-,N/A,,Clear,0,2013-09-11 05:53:00
1:59 AM,71.6,68.0,88,30.08,2.0,Calm,Calm,-,N/A,,Clear,0,2013-09-11 05:59:00
2:25 AM,71.6,66.2,83,30.08,3.0,Calm,Calm,-,N/A,,Clear,0,2013-09-11 06:25:00
2:53 AM,69.1,66.9,93,30.06,3.0,Calm,Calm,-,N/A,,Clear,0,2013-09-11 06:53:00
2:56 AM,69.8,68.0,94,30.08,1.0,Calm,Calm,-,N/A,,Mist,0,2013-09-11 06:56:00
3:02 AM,69.8,68.0,94,30.08,0.5,Calm,Calm,-,N/A,Fog,Fog,0,2013-09-11 07:02:00
3:09 AM,69.8,66.2,88,30.08,0.2,Calm,Calm,-,N/A,Fog,Fog,0,2013-09-11 07:09:00
3:17 AM,68.0,66.2,94,30.08,1.0,Calm,Calm,-,N/A,,Mist,0,2013-09-11 07:17:00
3:19 AM,68.0,66.2,94,30.08,2.5,Calm,Calm,-,N/A,,Partly Cloudy,0,2013-09-11 07:19:00
3:26 AM,68.0,66.2,94,30.08,3.0,Calm,Calm,-,N/A,,Partly Cloudy,0,2013-09-11 07:26:00
3:38 AM,68.0,66.2,94,30.07,1.5,Calm,Calm,-,N/A,,Clear,0,2013-09-11 07:38:00
3:48 AM,68.0,66.2,94,30.07,0.5,Calm,Calm,-,N/A,Fog,Fog,0,2013-09-11 07:48:00
3:53 AM,68.0,64.9,90,30.05,1.5,Calm,Calm,-,N/A,,Partly Cloudy,0,2013-09-11 07:53:00
3:56 AM,68.0,64.4,88,30.07,3.0,Calm,Calm,-,N/A,,Partly Cloudy,0,2013-09-11 07:56:00
3:59 AM,66.2,64.4,94,30.07,1.0,Calm,Calm,-,N/A,,Mist,0,2013-09-11 07:59:00
4:04 AM,66.2,64.4,94,30.08,0.2,Calm,Calm,-,N/A,Fog,Fog,0,2013-09-11 08:04:00
4:15 AM,66.2,66.2,100,30.08,0.2,Calm,Calm,-,N/A,Fog,Fog,0,2013-09-11 08:15:00
4:29 AM,66.2,64.4,94,30.07,0.5,Calm,Calm,-,N/A,Fog,Fog,0,2013-09-11 08:29:00
4:31 AM,66.2,64.4,94,30.07,0.2,Calm,Calm,-,N/A,Fog,Fog,0,2013-09-11 08:31:00
4:49 AM,66.2,64.4,94,30.08,1.0,Calm,Calm,-,N/A,,Mist,0,2013-09-11 08:49:00
4:51 AM,66.2,64.4,94,30.08,2.5,Calm,Calm,-,N/A,,Scattered Clouds,0,2013-09-11 08:51:00
4:53 AM,66.9,64.9,93,30.06,2.0,Calm,Calm,-,N/A,,Scattered Clouds,0,2013-09-11 08:53:00
5:00 AM,66.2,64.4,94,30.08,1.2,Calm,Calm,-,N/A,,Scattered Clouds,0,2013-09-11 09:00:00
5:07 AM,66.2,64.4,94,30.08,3.0,Calm,Calm,-,N/A,,Partly Cloudy,0,2013-09-11 09:07:00
5:33 AM,66.2,64.4,94,30.08,1.8,Calm,Calm,-,N/A,,Clear,0,2013-09-11 09:33:00
5:38 AM,66.2,64.4,94,30.09,0.5,Calm,Calm,-,N/A,Fog,Fog,0,2013-09-11 09:38:00
5:48 AM,66.2,64.4,94,30.09,0.2,Calm,Calm,-,N/A,Fog,Fog,0,2013-09-11 09:48:00
5:53 AM,64.9,64.0,97,30.07,0.2,Calm,Calm,-,N/A,Fog,Fog,0,2013-09-11 09:53:00
6:03 AM,66.2,64.4,94,30.09,1.0,Calm,Calm,-,N/A,,Mist,0,2013-09-11 10:03:00
6:29 AM,66.2,64.4,94,30.10,2.0,Calm,Calm,-,N/A,,Partly Cloudy,0,2013-09-11 10:29:00
6:53 AM,66.0,64.0,93,30.09,2.0,Calm,Calm,-,N/A,,Clear,0,2013-09-11 10:53:00
7:00 AM,66.2,64.4,94,30.11,3.0,Calm,Calm,-,N/A,,Clear,0,2013-09-11 11:00:00
7:12 AM,66.2,64.4,94,30.11,3.0,Calm,Calm,-,N/A,,Mostly Cloudy,0,2013-09-11 11:12:00
7:19 AM,66.2,64.4,94,30.11,3.0,Calm,Calm,-,N/A,,Mostly Cloudy,0,2013-09-11 11:19:00
7:53 AM,69.1,68.0,96,30.09,3.0,Calm,Calm,-,N/A,,Overcast,0,2013-09-11 11:53:00
8:00 AM,69.8,68.0,94,30.11,3.0,Calm,Calm,-,N/A,,Overcast,0,2013-09-11 12:00:00
8:17 AM,73.4,69.8,88,30.11,3.0,Calm,Calm,-,N/A,,Scattered Clouds,0,2013-09-11 12:17:00
8:53 AM,75.9,71.1,85,30.09,3.0,Calm,Calm,-,N/A,,Haze,0,2013-09-11 12:53:00
9:53 AM,82.0,73.0,74,30.09,3.0,SW,5.8,-,N/A,,Haze,220,2013-09-11 13:53:00
10:53 AM,86.0,72.0,63,30.06,6.0,SW,10.4,-,N/A,,Haze,230,2013-09-11 14:53:00
11:53 AM,88.0,71.1,57,30.05,7.0,SSW,6.9,-,N/A,,Clear,200,2013-09-11 15:53:00
12:53 PM,91.0,69.1,48,30.03,9.0,WSW,11.5,-,N/A,,Clear,250,2013-09-11 16:53:00
1:53 PM,91.9,69.1,47,30.01,9.0,West,10.4,-,N/A,,Partly Cloudy,260,2013-09-11 17:53:00
2:19 PM,91.4,68.0,46,30.01,9.0,WSW,12.7,-,N/A,Thunderstorm,Partly Cloudy,240,2013-09-11 18:19:00
2:34 PM,89.6,69.8,52,30.00,8.0,SW,6.9,-,N/A,,Partly Cloudy,220,2013-09-11 18:34:00
2:53 PM,91.9,68.0,45,29.98,9.0,West,10.4,-,N/A,Thunderstorm,Scattered Clouds,260,2013-09-11 18:53:00
3:32 PM,82.4,64.4,54,30.00,10.0,NW,13.8,26.5,0.00,Rain-Thunderstorm,Light Thunderstorms and Rain,320,2013-09-11 19:32:00
3:53 PM,82.0,66.9,60,29.98,10.0,WNW,5.8,-,0.00,Rain-Thunderstorm,Light Thunderstorms and Rain,290,2013-09-11 19:53:00
4:48 PM,71.6,66.2,83,30.04,2.0,SSW,13.8,38.0,0.06,Rain-Thunderstorm,Heavy Thunderstorms and Rain,210,2013-09-11 20:48:00
4:53 PM,72.0,64.9,78,30.01,3.0,SSW,13.8,34.5,0.07,Rain-Thunderstorm,Thunderstorms and Rain,210,2013-09-11 20:53:00
5:28 PM,73.4,66.2,78,30.02,9.0,SW,6.9,-,0.04,Rain,Light Rain,220,2013-09-11 21:28:00
5:53 PM,73.0,66.0,79,30.01,10.0,West,6.9,-,0.04,,Clear,280,2013-09-11 21:53:00
6:28 PM,71.6,66.2,83,30.03,10.0,SW,4.6,-,N/A,Thunderstorm,Clear,220,2013-09-11 22:28:00
6:43 PM,71.6,66.2,83,30.03,9.0,WNW,4.6,-,N/A,,Scattered Clouds,290,2013-09-11 22:43:00
6:53 PM,72.0,68.0,87,30.01,8.0,Calm,Calm,-,N/A,,Scattered Clouds,0,2013-09-11 22:53:00
7:53 PM,71.1,68.0,90,30.04,7.0,Calm,Calm,-,N/A,,Mostly Cloudy,0,2013-09-11 23:53:00
8:53 PM,70.0,68.0,93,30.04,6.0,West,5.8,-,0.01,Rain,Light Rain,280,2013-09-12 00:53:00
9:12 PM,71.6,68.0,88,30.06,5.0,Calm,Calm,-,0.01,Rain-Thunderstorm,Light Rain,0,2013-09-12 01:12:00
9:53 PM,70.0,68.0,93,30.01,4.0,SSE,3.5,-,0.11,Rain-Thunderstorm,Light Rain,160,2013-09-12 01:53:00
10:07 PM,69.8,68.0,94,30.03,6.0,SW,4.6,-,0.00,,Partly Cloudy,220,2013-09-12 02:07:00
10:53 PM,70.0,66.9,90,30.00,8.0,South,4.6,-,0.00,,Mostly Cloudy,170,2013-09-12 02:53:00
11:53 PM,69.1,66.9,93,29.96,6.0,Calm,Calm,-,0.00,Rain,Light Rain,0,2013-09-12 03:53:00